Time;durP1;ratioP1;P1;durP2;ratioP2;P2;SDS_P1;SDS_P2;PMS_P1;PMS_P2;Temp;Humidity;BMP_temperature;BMP_pressure;BME280_temperature;BME280_humidity;BME280_pressure;Samples;Min_cycle;Max_cycle;Signal;HPM_P1;HPM_P2
2024/03/31 00:01:06;;;;;;;40.55;22.42;;;;;;;10.73;78.94;100103.16;5072539;28;20031;-44
2024/03/31 00:03:35;;;;;;;45.92;23.95;;;;;;;10.65;79.59;100104.88;5071839;28;20049;-45
2024/03/31 00:06:00;;;;;;;43.55;23.67;;;;;;;10.61;79.60;100116.16;5072329;28;20398;-48
2024/03/31 00:08:26;;;;;;;40.53;22.73;;;;;;;10.57;79.64;100117.88;5072720;28;20032;-45
2024/03/31 00:11:01;;;;;;;40.20;22.23;;;;;;;10.52;79.91;100114.41;5073417;28;20372;-46
2024/03/31 00:13:30;;;;;;;41.00;22.23;;;;;;;10.52;79.56;100104.84;5072415;28;20033;-50
2024/03/31 00:15:55;;;;;;;45.15;23.60;;;;;;;10.50;79.04;100100.50;5071553;28;20025;-47
2024/03/31 00:18:21;;;;;;;39.80;21.67;;;;;;;10.53;79.05;100101.38;5070931;28;20711;-45
2024/03/31 00:20:52;;;;;;;51.63;24.92;;;;;;;10.52;79.18;100093.56;5071650;28;20036;-46
2024/03/31 00:23:17;;;;;;;45.80;24.75;;;;;;;10.54;80.04;100090.09;5071761;28;20407;-46
2024/03/31 00:25:42;;;;;;;44.28;23.88;;;;;;;10.61;80.15;100104.00;5071082;28;20051;-48
2024/03/31 00:28:08;;;;;;;51.90;25.77;;;;;;;10.64;80.36;100098.78;5071975;28;20067;-45
2024/03/31 00:30:33;;;;;;;44.83;24.17;;;;;;;10.72;80.28;100090.97;5069822;28;20032;-45
2024/03/31 00:32:58;;;;;;;46.67;24.52;;;;;;;10.79;80.19;100082.28;5070664;28;20044;-46
2024/03/31 00:35:23;;;;;;;48.40;24.88;;;;;;;10.85;80.31;100079.69;5071481;28;20037;-48
2024/03/31 00:37:49;;;;;;;178.93;26.67;;;;;;;10.81;80.29;100070.97;5071646;28;20033;-45
2024/03/31 00:40:14;;;;;;;102.88;24.92;;;;;;;10.82;80.96;100080.53;5071262;28;20421;-44
2024/03/31 00:42:40;;;;;;;57.50;23.25;;;;;;;10.74;81.31;100076.19;5071150;28;20032;-51
2024/03/31 00:45:05;;;;;;;42.72;23.08;;;;;;;10.84;80.96;100075.31;5071286;28;20036;-44
2024/03/31 00:47:30;;;;;;;53.10;23.23;;;;;;;10.94;80.47;100066.63;5069566;28;20058;-45
2024/03/31 00:49:56;;;;;;;55.25;22.30;;;;;;;11.01;80.55;100067.47;5069891;28;20029;-46
2024/03/31 00:52:21;;;;;;;60.35;21.58;;;;;;;10.88;80.81;100064.00;5071380;28;20487;-51
2024/03/31 00:54:47;;;;;;;88.80;22.30;;;;;;;10.90;80.78;100052.72;5069951;28;20055;-44
2024/03/31 00:57:12;;;;;;;58.13;21.25;;;;;;;10.90;81.35;100054.47;5072745;28;20032;-47
2024/03/31 00:59:37;;;;;;;222.45;22.42;;;;;;;10.85;80.85;100040.56;5071844;28;20075;-45
2024/03/31 01:02:03;;;;;;;41.35;21.08;;;;;;;10.82;81.58;100044.03;5070919;28;20036;-44
2024/03/31 01:04:28;;;;;;;183.60;21.42;;;;;;;10.71;81.67;100043.19;5069080;28;20123;-46
2024/03/31 01:06:54;;;;;;;32.97;19.05;;;;;;;10.69;81.31;100039.69;5069735;28;20043;-47
2024/03/31 01:09:19;;;;;;;53.47;21.23;;;;;;;10.80;81.00;100042.28;5069489;28;20032;-46
2024/03/31 01:11:45;;;;;;;113.97;21.13;;;;;;;10.76;80.83;100044.03;5068992;28;20124;-49
2024/03/31 01:14:11;;;;;;;61.72;19.38;;;;;;;10.81;80.67;100044.91;5046686;28;20033;-46
2024/03/31 01:16:37;;;;;;;71.28;21.27;;;;;;;10.72;81.05;100044.03;5069113;28;20036;-46
2024/03/31 01:19:02;;;;;;;85.10;20.05;;;;;;;10.49;81.65;100047.50;5072121;28;20094;-45
2024/03/31 01:21:30;;;;;;;34.05;20.17;;;;;;;10.50;82.04;100056.19;5071474;28;20036;-47
2024/03/31 01:23:59;;;;;;;61.03;19.67;;;;;;;10.67;80.91;100071.88;5070850;28;20085;-45
2024/03/31 01:26:25;;;;;;;56.47;19.05;;;;;;;10.49;81.16;100067.50;5070838;28;20036;-44
2024/03/31 01:28:50;;;;;;;43.70;19.58;;;;;;;10.25;82.21;100070.91;5070160;28;20127;-44
2024/03/31 01:31:15;;;;;;;40.40;20.15;;;;;;;10.48;81.78;100061.44;5070620;28;20124;-45
2024/03/31 01:33:41;;;;;;;100.75;21.35;;;;;;;10.38;81.55;100062.25;5070211;28;20082;-46
2024/03/31 01:36:06;;;;;;;39.50;19.23;;;;;;;10.47;81.47;100069.25;5070611;28;20115;-47
2024/03/31 01:38:31;;;;;;;34.90;19.27;;;;;;;10.51;81.17;100071.84;5070095;28;20036;-46
2024/03/31 01:40:57;;;;;;;34.88;20.40;;;;;;;10.43;81.59;100075.31;5070551;28;20482;-48
2024/03/31 01:43:22;;;;;;;41.95;21.92;;;;;;;10.56;81.23;100071.84;5070446;28;20032;-44
2024/03/31 01:45:48;;;;;;;45.95;20.35;;;;;;;10.48;81.26;100079.66;5069679;28;20117;-44
2024/03/31 01:48:13;;;;;;;47.63;20.88;;;;;;;10.59;81.62;100069.25;5070410;28;20124;-46
2024/03/31 01:50:38;;;;;;;39.50;21.33;;;;;;;10.64;81.37;100070.09;5070242;28;20125;-50
2024/03/31 01:53:04;;;;;;;38.72;20.55;;;;;;;10.60;81.10;100068.38;5070328;28;20679;-46
2024/03/31 01:55:29;;;;;;;33.13;19.88;;;;;;;10.71;80.87;100068.38;5069916;28;20040;-45
2024/03/31 01:57:55;;;;;;;35.40;20.02;;;;;;;10.60;80.76;100073.59;5070309;28;20028;-44
2024/03/31 02:00:20;;;;;;;40.60;21.13;;;;;;;10.65;80.66;100069.25;5070493;28;20085;-46
2024/03/31 02:02:46;;;;;;;40.38;21.73;;;;;;;10.66;80.75;100080.53;5069769;28;20127;-45
2024/03/31 02:05:11;;;;;;;42.85;22.00;;;;;;;10.64;81.29;100093.56;5069173;28;20090;-46
2024/03/31 02:07:37;;;;;;;40.75;21.02;;;;;;;10.74;81.64;100077.06;5071006;28;20453;-45
2024/03/31 02:10:02;;;;;;;40.25;21.73;;;;;;;10.41;83.03;100083.13;5070608;28;20499;-47
2024/03/31 02:12:27;;;;;;;40.50;21.95;;;;;;;10.82;82.54;100090.97;5070910;28;20032;-51
2024/03/31 02:14:53;;;;;;;38.97;21.80;;;;;;;10.95;82.42;100084.00;5071297;28;20037;-45
2024/03/31 02:17:18;;;;;;;40.92;21.15;;;;;;;10.84;83.22;100090.97;5070927;28;20068;-45
2024/03/31 02:19:43;;;;;;;39.05;21.10;;;;;;;11.05;82.50;100087.47;5070425;28;20506;-46
2024/03/31 02:22:09;;;;;;;40.15;21.58;;;;;;;11.00;83.13;100082.25;5071179;28;20115;-46
2024/03/31 02:24:34;;;;;;;40.08;21.00;;;;;;;11.21;82.56;100074.41;5070319;28;20032;-51
2024/03/31 02:26:59;;;;;;;40.17;20.27;;;;;;;11.20;82.27;100067.47;5071691;28;20116;-46
2024/03/31 02:29:25;;;;;;;39.67;20.40;;;;;;;11.34;82.36;100059.59;5070389;28;20466;-48
2024/03/31 02:31:50;;;;;;;39.03;20.85;;;;;;;11.34;82.16;100060.44;5069108;28;20029;-44
2024/03/31 02:34:15;;;;;;;37.63;19.88;;;;;;;11.38;82.07;100062.19;5070322;28;20032;-46
2024/03/31 02:36:41;;;;;;;37.95;19.73;;;;;;;11.22;82.55;100050.03;5070515;28;20127;-45
2024/03/31 02:39:06;;;;;;;38.47;20.30;;;;;;;11.15;82.87;100045.72;5071128;28;20043;-46
2024/03/31 02:41:32;;;;;;;37.80;20.67;;;;;;;11.20;83.23;100046.59;5070662;28;20115;-44
2024/03/31 02:43:57;;;;;;;38.75;20.67;;;;;;;11.33;82.88;100047.44;5070828;28;20436;-45
2024/03/31 02:46:22;;;;;;;37.75;20.33;;;;;;;11.09;82.68;100048.34;5070589;28;20040;-45
2024/03/31 02:48:47;;;;;;;38.83;20.50;;;;;;;11.04;83.61;100051.84;5070148;28;20033;-46
2024/03/31 02:51:13;;;;;;;41.08;20.52;;;;;;;11.45;82.98;100044.78;5069727;28;20037;-46
2024/03/31 02:53:38;;;;;;;41.80;20.55;;;;;;;11.39;82.40;100039.56;5070433;28;20028;-44
2024/03/31 02:56:04;;;;;;;39.83;20.17;;;;;;;11.49;82.77;100043.88;5068213;28;20024;-45
2024/03/31 02:58:29;;;;;;;40.75;20.67;;;;;;;11.63;82.27;100047.31;5071536;28;20052;-47
2024/03/31 03:01:04;;;;;;;37.30;20.48;;;;;;;11.48;82.92;100036.03;5073680;28;20035;-47
2024/03/31 03:03:30;;;;;;;43.67;20.58;;;;;;;11.22;84.06;100036.16;5073245;28;20041;-49
2024/03/31 03:05:55;;;;;;;36.50;19.67;;;;;;;11.39;82.82;100030.00;5074309;28;20029;-45
2024/03/31 03:08:20;;;;;;;38.25;19.98;;;;;;;11.64;82.42;100028.16;5072848;28;20033;-45
2024/03/31 03:10:56;;;;;;;39.25;20.60;;;;;;;11.52;82.93;100016.91;5073801;28;20043;-44
2024/03/31 03:13:22;;;;;;;37.97;19.15;;;;;;;11.56;82.63;100018.63;5074185;28;20056;-46
2024/03/31 03:15:47;;;;;;;39.70;20.70;;;;;;;11.70;82.48;100019.44;5073504;28;20060;-47
2024/03/31 03:18:19;;;;;;;42.35;20.92;;;;;;;11.43;82.61;100006.50;5074514;28;20469;-45
2024/03/31 03:20:44;;;;;;;45.35;21.50;;;;;;;11.45;82.56;100008.22;5074269;28;20101;-45
2024/03/31 03:23:09;;;;;;;39.42;19.55;;;;;;;11.57;82.50;100017.75;5074495;28;20103;-46
2024/03/31 03:25:35;;;;;;;39.15;19.25;;;;;;;11.56;82.51;100022.09;5073791;28;20032;-47
2024/03/31 03:28:00;;;;;;;37.63;19.42;;;;;;;11.79;82.04;100019.41;5074228;28;20044;-45
2024/03/31 03:30:26;;;;;;;36.22;18.27;;;;;;;11.89;81.50;100015.91;5074248;28;20451;-46
2024/03/31 03:32:52;;;;;;;33.63;17.52;;;;;;;11.65;82.75;100026.41;5073626;28;20044;-46
2024/03/31 03:35:17;;;;;;;35.95;17.45;;;;;;;11.75;82.31;100034.25;5074304;28;20024;-46
2024/03/31 03:37:43;;;;;;;33.83;17.85;;;;;;;11.84;82.66;100032.44;5074519;28;20123;-47
2024/03/31 03:40:08;;;;;;;35.42;17.42;;;;;;;11.73;82.32;100022.91;5074174;28;20028;-44
2024/03/31 03:42:33;;;;;;;33.83;17.30;;;;;;;11.74;82.56;100016.84;5073700;28;20036;-45
2024/03/31 03:44:59;;;;;;;31.48;16.60;;;;;;;11.82;82.37;100015.94;5072218;28;20044;-45
2024/03/31 03:47:24;;;;;;;32.78;16.75;;;;;;;11.78;82.50;100015.06;5073735;28;20060;-45
2024/03/31 03:49:51;;;;;;;30.60;16.33;;;;;;;11.95;81.85;100012.38;5073221;28;20029;-44
2024/03/31 03:52:17;;;;;;;30.60;15.60;;;;;;;11.62;83.24;100003.81;5072185;28;20411;-45
2024/03/31 03:54:43;;;;;;;30.85;15.45;;;;;;;11.94;81.50;100000.19;5072589;28;20452;-46
2024/03/31 03:57:08;;;;;;;31.98;15.43;;;;;;;11.79;81.33;100002.00;5074068;28;20037;-48
2024/03/31 03:59:33;;;;;;;31.90;15.63;;;;;;;11.74;81.45;100001.16;5073484;28;20128;-46
2024/03/31 04:01:58;;;;;;;30.17;15.35;;;;;;;11.95;81.30;99994.09;5072930;28;20086;-45
2024/03/31 04:04:24;;;;;;;30.20;15.45;;;;;;;11.69;82.28;100004.66;5072498;28;20031;-44
2024/03/31 04:06:49;;;;;;;28.83;14.98;;;;;;;11.70;81.75;99999.41;5071472;28;20418;-46
2024/03/31 04:09:14;;;;;;;31.55;15.20;;;;;;;11.73;82.07;99995.91;5070988;28;20048;-47
2024/03/31 04:11:40;;;;;;;29.67;14.45;;;;;;;11.69;81.59;99989.84;5071754;28;20123;-44
2024/03/31 04:14:06;;;;;;;28.55;13.77;;;;;;;11.66;82.09;99991.59;5071996;28;20521;-45
2024/03/31 04:16:31;;;;;;;26.70;12.80;;;;;;;11.39;81.96;99977.81;5071830;28;20059;-46
2024/03/31 04:18:56;;;;;;;24.25;12.60;;;;;;;11.88;81.38;99968.88;5072116;28;20035;-48
2024/03/31 04:21:21;;;;;;;21.80;11.90;;;;;;;11.47;81.12;99969.06;5071603;28;20106;-46
2024/03/31 04:23:47;;;;;;;25.33;12.77;;;;;;;11.73;81.26;99972.41;5072832;28;20429;-45
2024/03/31 04:26:12;;;;;;;21.92;11.70;;;;;;;11.47;81.19;99959.50;5072872;28;20071;-45
2024/03/31 04:28:37;;;;;;;23.45;11.75;;;;;;;11.44;81.99;99969.09;5071382;28;20037;-47
2024/03/31 04:31:03;;;;;;;22.15;12.18;;;;;;;11.68;80.92;99963.75;5072209;28;20490;-45
2024/03/31 04:33:32;;;;;;;20.67;11.57;;;;;;;11.47;80.88;99954.25;5071441;28;20056;-46
2024/03/31 04:35:58;;;;;;;22.85;11.80;;;;;;;11.21;82.01;99949.19;5071890;28;20059;-48
2024/03/31 04:38:23;;;;;;;20.92;11.73;;;;;;;11.26;82.28;99951.78;5071480;28;20060;-45
2024/03/31 04:40:56;;;;;;;21.73;11.82;;;;;;;11.30;81.82;99963.91;5071196;28;20467;-46
2024/03/31 04:43:21;;;;;;;21.65;11.38;;;;;;;11.23;82.03;99963.06;5071379;28;20075;-44
2024/03/31 04:45:47;;;;;;;20.50;11.57;;;;;;;11.12;82.98;99970.06;5071058;28;20064;-45
2024/03/31 04:48:12;;;;;;;20.98;11.13;;;;;;;11.21;82.74;99970.06;5071352;28;20036;-49
2024/03/31 04:50:37;;;;;;;20.08;11.10;;;;;;;11.41;81.67;99962.13;5069353;28;20068;-45
2024/03/31 04:53:03;;;;;;;20.08;11.05;;;;;;;11.38;81.82;99963.03;5071378;28;20036;-47
2024/03/31 04:55:28;;;;;;;19.13;10.73;;;;;;;11.52;81.26;99965.56;5070516;28;20082;-45
2024/03/31 04:57:53;;;;;;;20.17;10.90;;;;;;;11.45;81.77;99976.91;5071295;28;20033;-45
2024/03/31 05:00:19;;;;;;;19.65;10.70;;;;;;;10.95;83.16;99970.13;5070659;28;20115;-46
2024/03/31 05:02:47;;;;;;;21.83;11.05;;;;;;;11.42;82.78;99976.91;5071366;28;20116;-45
2024/03/31 05:05:12;;;;;;;19.95;10.20;;;;;;;11.16;82.26;99973.56;5070714;28;20502;-45
2024/03/31 05:07:37;;;;;;;19.80;10.35;;;;;;;11.63;82.05;99986.41;5072462;28;20035;-46
2024/03/31 05:10:03;;;;;;;21.17;10.38;;;;;;;11.17;82.94;99983.97;5072501;28;20041;-46
2024/03/31 05:12:29;;;;;;;18.48;10.13;;;;;;;11.55;82.34;99982.94;5071829;28;20033;-45
2024/03/31 05:14:54;;;;;;;20.02;10.05;;;;;;;11.62;81.70;99988.13;5070729;28;20431;-45
2024/03/31 05:17:20;;;;;;;17.45;10.35;;;;;;;11.77;81.33;99990.69;5070690;28;20037;-44
2024/03/31 05:19:45;;;;;;;18.55;10.57;;;;;;;11.45;82.75;99976.03;5071545;28;20450;-46
2024/03/31 05:22:10;;;;;;;20.02;10.15;;;;;;;11.35;83.37;99976.06;5069974;28;20097;-45
2024/03/31 05:24:36;;;;;;;18.83;10.05;;;;;;;11.61;82.76;99980.31;5070489;28;20115;-44
2024/03/31 05:27:01;;;;;;;17.88;10.02;;;;;;;11.37;83.60;99984.78;5070069;28;20048;-44
2024/03/31 05:29:26;;;;;;;17.65;9.93;;;;;;;11.43;83.58;99977.78;5070851;28;20036;-44
2024/03/31 05:31:51;;;;;;;16.40;9.70;;;;;;;11.47;82.92;99967.31;5070796;28;20059;-44
2024/03/31 05:34:17;;;;;;;17.30;10.00;;;;;;;11.22;83.79;99965.72;5069872;28;20040;-45
2024/03/31 05:36:42;;;;;;;21.35;9.82;;;;;;;11.29;83.88;99963.03;5071222;28;20040;-45
2024/03/31 05:39:07;;;;;;;18.40;10.32;;;;;;;11.55;82.41;99964.69;5071719;28;20121;-45
2024/03/31 05:41:33;;;;;;;17.27;9.90;;;;;;;11.59;83.21;99969.00;5071931;28;20490;-44
2024/03/31 05:43:58;;;;;;;18.58;10.63;;;;;;;11.12;85.31;99958.78;5071281;28;20043;-44
2024/03/31 05:46:24;;;;;;;17.10;9.93;;;;;;;11.73;83.16;99960.25;5070568;28;20128;-46
2024/03/31 05:48:49;;;;;;;18.27;10.02;;;;;;;11.21;84.11;99958.75;5070118;28;20036;-45
2024/03/31 05:51:14;;;;;;;18.15;9.80;;;;;;;11.31;84.92;99960.44;5069801;28;20047;-46
2024/03/31 05:53:40;;;;;;;17.45;9.77;;;;;;;11.70;83.70;99965.47;5069965;28;20123;-44
2024/03/31 05:56:05;;;;;;;17.98;9.68;;;;;;;11.28;83.54;99944.81;5069742;28;20048;-45
2024/03/31 05:58:30;;;;;;;17.90;9.98;;;;;;;11.65;84.06;99955.91;5070276;28;20029;-44
2024/03/31 06:00:56;;;;;;;19.20;9.43;;;;;;;11.45;84.35;99945.59;5070064;28;20033;-44
2024/03/31 06:03:21;;;;;;;18.77;10.50;;;;;;;11.61;83.95;99949.84;5068950;28;20458;-45
2024/03/31 06:05:46;;;;;;;18.23;10.02;;;;;;;11.73;82.99;99944.59;5070178;28;20032;-47
2024/03/31 06:08:12;;;;;;;17.85;9.75;;;;;;;11.46;84.56;99951.69;5070146;28;20441;-46
2024/03/31 06:10:37;;;;;;;19.80;10.23;;;;;;;11.72;83.34;99940.22;5070457;28;20119;-46
2024/03/31 06:13:03;;;;;;;16.85;9.63;;;;;;;11.93;82.65;99939.25;5069510;28;20538;-46
2024/03/31 06:15:29;;;;;;;16.38;9.63;;;;;;;12.02;82.37;99925.22;5069782;28;20120;-47
2024/03/31 06:17:54;;;;;;;21.05;10.52;;;;;;;11.93;83.28;99936.63;5069994;28;20125;-46
2024/03/31 06:20:19;;;;;;;20.27;10.30;;;;;;;12.01;82.49;99937.44;5069823;28;20036;-46
2024/03/31 06:22:48;;;;;;;20.15;10.18;;;;;;;11.76;83.06;99930.66;5071462;28;20033;-43
2024/03/31 06:25:13;;;;;;;20.02;10.30;;;;;;;12.25;81.72;99938.13;5071250;28;20106;-44
2024/03/31 06:27:38;;;;;;;17.85;10.30;;;;;;;11.73;83.94;99931.53;5069975;28;20706;-44
2024/03/31 06:30:04;;;;;;;19.85;10.75;;;;;;;11.56;84.75;99933.34;5069567;28;20044;-46
2024/03/31 06:32:29;;;;;;;17.40;9.43;;;;;;;11.84;82.97;99928.84;5070971;28;20040;-45
2024/03/31 06:34:55;;;;;;;19.55;9.90;;;;;;;12.15;82.25;99937.31;5072017;28;20118;-44
2024/03/31 06:37:20;;;;;;;20.50;9.98;;;;;;;12.14;81.51;99935.59;5069280;28;20063;-45
2024/03/31 06:39:46;;;;;;;21.17;10.25;;;;;;;11.91;83.05;99935.75;5069950;28;20047;-46
2024/03/31 06:42:12;;;;;;;18.63;10.13;;;;;;;11.98;82.72;99933.97;5069455;28;20039;-45
2024/03/31 06:44:38;;;;;;;20.45;10.48;;;;;;;11.82;83.05;99943.69;5069494;28;20078;-44
2024/03/31 06:47:03;;;;;;;17.63;10.38;;;;;;;11.76;83.32;99933.28;5069257;28;20114;-46
2024/03/31 06:49:29;;;;;;;26.58;10.80;;;;;;;11.68;84.17;99935.88;5070012;28;20048;-46
2024/03/31 06:51:54;;;;;;;18.73;10.23;;;;;;;11.51;84.71;99939.47;5070493;28;20131;-46
2024/03/31 06:54:19;;;;;;;21.20;10.85;;;;;;;11.42;85.39;99934.28;5069654;28;20037;-46
2024/03/31 06:56:45;;;;;;;21.38;10.50;;;;;;;11.62;84.26;99922.88;5069600;28;20040;-46
2024/03/31 06:59:10;;;;;;;20.05;10.65;;;;;;;11.70;84.80;99928.94;5068943;28;20585;-47
2024/03/31 07:01:36;;;;;;;22.48;10.85;;;;;;;11.63;85.15;99922.00;5069495;28;20037;-51
2024/03/31 07:04:01;;;;;;;20.73;11.18;;;;;;;11.70;84.67;99923.69;5068957;28;20041;-44
2024/03/31 07:06:26;;;;;;;24.95;11.18;;;;;;;11.43;85.73;99922.97;5069356;28;20064;-45
2024/03/31 07:08:52;;;;;;;21.05;10.93;;;;;;;11.43;86.10;99913.41;5069224;28;20041;-46
2024/03/31 07:11:18;;;;;;;22.48;11.40;;;;;;;11.78;85.13;99911.47;5069001;28;20028;-45
2024/03/31 07:13:43;;;;;;;21.08;11.27;;;;;;;12.06;84.21;99914.78;5069309;28;20383;-47
2024/03/31 07:16:08;;;;;;;22.58;11.52;;;;;;;11.95;84.98;99911.38;5068863;28;20123;-47
2024/03/31 07:18:33;;;;;;;22.23;11.20;;;;;;;11.65;85.56;99904.56;5069051;28;20029;-46
2024/03/31 07:20:59;;;;;;;21.83;11.35;;;;;;;11.82;85.80;99907.13;5069678;28;20044;-45
2024/03/31 07:23:25;;;;;;;24.38;11.43;;;;;;;12.00;85.55;99903.50;5068686;28;20052;-46
2024/03/31 07:25:50;;;;;;;25.25;11.75;;;;;;;12.20;85.29;99904.19;5069427;28;20060;-43
2024/03/31 07:28:15;;;;;;;22.73;11.35;;;;;;;12.43;83.85;99909.22;5069272;28;20504;-46
2024/03/31 07:30:40;;;;;;;25.08;11.77;;;;;;;12.12;84.47;99898.19;5069286;28;20033;-49
2024/03/31 07:33:06;;;;;;;21.52;11.48;;;;;;;11.92;85.57;99893.09;5068283;28;20074;-48
2024/03/31 07:35:31;;;;;;;21.52;11.35;;;;;;;12.14;84.54;99888.56;5069335;28;20033;-46
2024/03/31 07:37:56;;;;;;;20.67;11.18;;;;;;;11.83;85.50;99885.34;5070374;28;20137;-46
2024/03/31 07:40:22;;;;;;;23.33;11.23;;;;;;;12.11;84.86;99881.63;5068851;28;20033;-45
2024/03/31 07:42:47;;;;;;;23.42;11.55;;;;;;;12.15;85.36;99885.06;5069186;28;20040;-48
2024/03/31 07:45:12;;;;;;;22.60;11.80;;;;;;;12.29;84.00;99884.94;5071139;28;20032;-47
2024/03/31 07:47:37;;;;;;;21.52;11.52;;;;;;;12.39;84.39;99883.97;5072522;28;20040;-47
2024/03/31 07:50:03;;;;;;;22.88;11.65;;;;;;;12.48;84.31;99878.66;5072214;28;20033;-44
2024/03/31 07:52:29;;;;;;;22.40;12.07;;;;;;;12.46;84.64;99886.53;5072268;28;20494;-46
2024/03/31 07:54:54;;;;;;;21.58;11.10;;;;;;;12.90;84.86;99883.44;5072288;28;20036;-45
2024/03/31 07:57:19;;;;;;;22.25;11.60;;;;;;;12.97;83.62;99887.69;5071986;28;20046;-44
2024/03/31 07:59:47;;;;;;;22.38;11.73;;;;;;;12.91;83.78;99889.53;5072083;28;20048;-45
2024/03/31 08:02:13;;;;;;;21.20;11.60;;;;;;;12.77;83.44;99886.19;5071761;28;20459;-47
2024/03/31 08:04:40;;;;;;;24.38;12.30;;;;;;;13.29;83.02;99887.34;5072255;28;20119;-47
2024/03/31 08:07:05;;;;;;;21.30;11.63;;;;;;;12.77;84.24;99892.28;5072042;28;20036;-46
2024/03/31 08:09:30;;;;;;;23.60;12.65;;;;;;;13.35;83.06;99878.53;5072464;28;20127;-44
2024/03/31 08:11:56;;;;;;;24.08;12.63;;;;;;;13.59;83.43;99875.56;5072166;28;20464;-45
2024/03/31 08:14:21;;;;;;;20.83;11.43;;;;;;;13.19;82.62;99867.38;5071352;28;20029;-45
2024/03/31 08:16:46;;;;;;;20.65;12.05;;;;;;;13.48;81.94;99855.66;5072100;28;20058;-45
2024/03/31 08:19:12;;;;;;;21.42;12.48;;;;;;;13.13;82.15;99856.13;5071796;28;20040;-45
2024/03/31 08:21:40;;;;;;;20.83;11.55;;;;;;;13.92;80.69;99852.34;5071873;28;20040;-46
2024/03/31 08:24:06;;;;;;;20.73;12.20;;;;;;;14.15;79.67;99858.03;5071527;28;20478;-45
2024/03/31 08:26:31;;;;;;;18.80;11.88;;;;;;;14.42;79.83;99851.50;5072113;28;20043;-46
2024/03/31 08:28:56;;;;;;;19.40;12.55;;;;;;;14.51;79.51;99856.59;5072619;28;20029;-45
2024/03/31 08:31:22;;;;;;;21.70;12.80;;;;;;;14.72;79.28;99852.66;5070630;28;20538;-44
2024/03/31 08:33:47;;;;;;;20.73;13.13;;;;;;;14.25;77.94;99861.38;5071815;28;20131;-48
2024/03/31 08:36:12;;;;;;;22.55;13.60;;;;;;;13.99;78.33;99857.44;5072696;28;20555;-44
2024/03/31 08:38:38;;;;;;;22.58;13.98;;;;;;;14.33;78.50;99863.00;5073068;28;20048;-44
2024/03/31 08:41:08;;;;;;;23.50;14.63;;;;;;;14.19;78.35;99868.47;5072514;28;20028;-46
2024/03/31 08:43:38;;;;;;;23.30;14.63;;;;;;;14.25;78.91;99872.75;5071551;28;20048;-46
2024/03/31 08:46:07;;;;;;;25.27;14.75;;;;;;;14.02;80.14;99861.78;5071016;28;20033;-46
2024/03/31 08:48:36;;;;;;;26.73;15.60;;;;;;;13.93;79.84;99875.91;5071352;28;20040;-45
2024/03/31 08:51:02;;;;;;;24.92;15.68;;;;;;;13.91;80.69;99875.03;5071116;28;20037;-46
2024/03/31 08:53:28;;;;;;;27.02;16.33;;;;;;;14.17;79.33;99865.00;5071261;28;20033;-46
2024/03/31 08:55:53;;;;;;;27.55;16.60;;;;;;;13.78;80.19;99860.44;5069442;28;20120;-45
2024/03/31 08:58:19;;;;;;;25.90;16.48;;;;;;;14.15;79.84;99858.03;5069380;28;20493;-45
2024/03/31 09:00:45;;;;;;;28.00;16.58;;;;;;;14.25;79.60;99862.25;5072396;28;20040;-46
2024/03/31 09:03:13;;;;;;;27.48;16.50;;;;;;;14.44;79.47;99865.44;5071814;28;20075;-43
2024/03/31 09:05:39;;;;;;;27.70;16.70;;;;;;;14.38;79.37;99862.94;5072040;28;20037;-45
2024/03/31 09:08:06;;;;;;;29.70;17.80;;;;;;;14.41;80.19;99853.25;5070899;28;20032;-45
2024/03/31 09:10:31;;;;;;;29.10;17.95;;;;;;;14.84;79.25;99848.03;5072589;28;20518;-45
2024/03/31 09:12:58;;;;;;;28.25;17.20;;;;;;;14.50;79.78;99847.84;5072258;28;20064;-45
2024/03/31 09:15:23;;;;;;;28.77;18.05;;;;;;;14.13;80.92;99847.59;5070149;28;20513;-45
2024/03/31 09:17:49;;;;;;;28.00;17.20;;;;;;;14.42;80.17;99841.88;5071330;28;20036;-44
2024/03/31 09:20:14;;;;;;;30.35;18.55;;;;;;;14.44;80.19;99834.84;5070958;28;20056;-44
2024/03/31 09:22:40;;;;;;;29.17;17.77;;;;;;;14.75;79.49;99837.75;5071313;28;20062;-45
2024/03/31 09:25:09;;;;;;;28.60;18.27;;;;;;;14.93;79.81;99828.63;5070312;28;20040;-47
2024/03/31 09:27:36;;;;;;;31.20;19.60;;;;;;;15.04;79.57;99824.00;5070793;28;20550;-45
2024/03/31 09:30:01;;;;;;;34.92;21.02;;;;;;;15.15;78.71;99818.50;5070649;28;20071;-48
2024/03/31 09:32:27;;;;;;;34.22;21.48;;;;;;;15.12;78.82;99814.22;5070586;28;20068;-44
2024/03/31 09:34:53;;;;;;;32.70;21.75;;;;;;;15.46;77.04;99811.69;5070449;28;20402;-45
2024/03/31 09:37:19;;;;;;;34.53;21.90;;;;;;;15.56;76.47;99814.97;5070041;28;20047;-45
2024/03/31 09:39:44;;;;;;;36.80;23.05;;;;;;;15.24;77.46;99802.56;5070762;28;20403;-46
2024/03/31 09:42:10;;;;;;;38.15;22.80;;;;;;;15.66;76.83;99806.84;5070242;28;20044;-45
2024/03/31 09:44:36;;;;;;;36.40;22.75;;;;;;;16.24;75.71;99803.59;5070455;28;20123;-44
2024/03/31 09:47:07;;;;;;;34.72;22.63;;;;;;;15.76;75.62;99797.84;5070080;28;20052;-45
2024/03/31 09:49:35;;;;;;;33.88;22.58;;;;;;;15.59;74.56;99794.75;5070458;28;20070;-48
2024/03/31 09:52:04;;;;;;;34.58;22.73;;;;;;;16.12;74.88;99797.78;5070058;28;20509;-45
2024/03/31 09:54:41;;;;;;;36.28;23.27;;;;;;;15.85;74.93;99786.25;5070340;28;20036;-46
2024/03/31 09:57:09;;;;;;;35.75;24.02;;;;;;;15.73;76.54;99787.41;5069817;28;20135;-44
2024/03/31 09:59:44;;;;;;;39.35;23.23;;;;;;;15.44;77.06;99788.06;5070851;28;20036;-46
2024/03/31 10:02:13;;;;;;;40.53;23.83;;;;;;;16.11;75.50;99782.91;5070056;28;20119;-44
2024/03/31 10:04:47;;;;;;;36.63;24.48;;;;;;;16.31;75.04;99783.25;5070381;28;20036;-47
2024/03/31 10:07:13;;;;;;;37.30;24.25;;;;;;;16.59;73.46;99783.34;5068922;28;20040;-45
2024/03/31 10:09:39;;;;;;;36.83;24.88;;;;;;;16.53;73.25;99788.78;5068791;28;20037;-45
2024/03/31 10:12:06;;;;;;;41.10;25.95;;;;;;;16.94;72.71;99790.25;5069496;28;20086;-45
2024/03/31 10:14:34;;;;;;;37.83;24.77;;;;;;;16.42;73.17;99781.19;5069888;28;20549;-46
2024/03/31 10:17:00;;;;;;;39.45;25.55;;;;;;;16.34;73.61;99787.59;5070210;28;20415;-45
2024/03/31 10:19:30;;;;;;;39.00;25.45;;;;;;;16.17;73.22;99786.25;5069885;28;20032;-45
2024/03/31 10:21:57;;;;;;;38.85;25.55;;;;;;;16.89;72.25;99784.28;5069712;28;20082;-45
2024/03/31 10:24:24;;;;;;;37.58;24.65;;;;;;;16.90;72.25;99770.19;5069255;28;20040;-46
2024/03/31 10:26:53;;;;;;;36.40;25.25;;;;;;;17.14;71.74;99776.50;5069882;28;20036;-45
2024/03/31 10:29:19;;;;;;;40.75;25.08;;;;;;;17.21;71.16;99773.59;5069600;28;20044;-45
2024/03/31 10:31:45;;;;;;;41.38;25.30;;;;;;;17.61;70.60;99775.88;5071059;28;20171;-45
2024/03/31 10:34:11;;;;;;;36.40;24.55;;;;;;;17.59;70.08;99776.81;5071720;28;20060;-46
2024/03/31 10:36:38;;;;;;;35.20;23.50;;;;;;;16.97;71.78;99782.25;5071496;28;20522;-46
2024/03/31 10:39:03;;;;;;;34.35;23.70;;;;;;;17.36;70.88;99774.91;5070585;28;20035;-46
2024/03/31 10:41:29;;;;;;;41.13;23.85;;;;;;;17.61;70.26;99764.47;5071404;28;20116;-45
2024/03/31 10:43:55;;;;;;;34.90;23.83;;;;;;;17.33;70.04;99762.69;5071006;28;20041;-48
2024/03/31 10:46:22;;;;;;;35.65;22.83;;;;;;;17.57;70.34;99771.56;5070691;28;20124;-47
2024/03/31 10:48:56;;;;;;;35.67;23.00;;;;;;;17.38;70.57;99762.56;5070029;28;20037;-46
2024/03/31 10:51:23;;;;;;;34.13;22.58;;;;;;;17.59;72.14;99753.94;5069456;28;20044;-45
2024/03/31 10:53:49;;;;;;;32.88;21.75;;;;;;;17.61;71.22;99754.81;5069197;28;20112;-46
2024/03/31 10:56:15;;;;;;;31.38;20.95;;;;;;;17.30;70.13;99747.00;5069007;28;20632;-47
2024/03/31 10:58:41;;;;;;;31.27;21.35;;;;;;;17.29;71.59;99760.22;5069968;28;20119;-46
2024/03/31 11:01:06;;;;;;;31.27;20.58;;;;;;;17.71;69.71;99756.22;5069291;28;20047;-46
2024/03/31 11:03:32;;;;;;;37.47;20.98;;;;;;;17.94;70.12;99758.06;5069188;28;20041;-47
2024/03/31 11:05:58;;;;;;;30.38;20.67;;;;;;;17.99;69.06;99752.66;5069226;28;20041;-46
2024/03/31 11:08:24;;;;;;;31.00;19.20;;;;;;;17.78;69.60;99748.97;5068694;28;20039;-47